Time;durP1;ratioP1;P1;durP2;ratioP2;P2;SDS_P1;SDS_P2;PMS_P1;PMS_P2;Temp;Humidity;BMP_temperature;BMP_pressure;BME280_temperature;BME280_humidity;BME280_pressure;Samples;Min_cycle;Max_cycle;Signal;HPM_P1;HPM_P2
2023/10/22 00:00:33;;;;;;;3.08;1.10;;;;;;;;;;5096150;28;20074;-70
2023/10/22 00:02:59;;;;;;;1.80;0.88;;;;;;;;;;5088888;28;20082;-70
2023/10/22 00:05:26;;;;;;;1.30;0.80;;;;;;;;;;5091562;28;20416;-70
2023/10/22 00:07:53;;;;;;;2.75;0.73;;;;;;;;;;5088367;28;20051;-70
2023/10/22 00:10:21;;;;;;;2.03;0.80;;;;;;;;;;5087928;28;20123;-70
2023/10/22 00:12:48;;;;;;;1.80;0.82;;;;;;;;;;5089767;28;20523;-70
2023/10/22 00:15:15;;;;;;;2.72;0.80;;;;;;;;;;5095092;28;20078;-70
2023/10/22 00:17:42;;;;;;;1.58;0.77;;;;;;;;;;5089533;28;20056;-70
2023/10/22 00:20:09;;;;;;;1.30;0.70;;;;;;;;;;5091725;28;20062;-70
2023/10/22 00:22:36;;;;;;;2.20;0.80;;;;;;;;;;5091284;28;20044;-70
2023/10/22 00:25:03;;;;;;;2.42;0.65;;;;;;;;;;5089262;28;20067;-70
2023/10/22 00:27:32;;;;;;;2.70;0.88;;;;;;;;;;5087936;28;20051;-71
2023/10/22 00:29:59;;;;;;;1.48;0.63;;;;;;;;;;5090854;28;20051;-70
2023/10/22 00:32:27;;;;;;;2.85;0.93;;;;;;;;;;5074956;28;20074;-70
2023/10/22 00:34:56;;;;;;;5.32;1.00;;;;;;;;;;5095913;28;20127;-70
2023/10/22 00:37:23;;;;;;;3.22;0.90;;;;;;;;;;5092196;28;20044;-70
2023/10/22 00:39:50;;;;;;;2.35;0.82;;;;;;;;;;5091699;28;20048;-70
2023/10/22 00:42:16;;;;;;;3.72;0.63;;;;;;;;;;5091901;28;20044;-70
2023/10/22 00:44:43;;;;;;;1.52;0.75;;;;;;;;;;5093366;28;20449;-70
2023/10/22 00:47:15;;;;;;;2.85;1.00;;;;;;;;;;5097340;28;20626;-70
2023/10/22 00:49:43;;;;;;;1.13;0.70;;;;;;;;;;5077599;28;20048;-70
2023/10/22 00:52:14;;;;;;;2.15;0.80;;;;;;;;;;5093647;28;20573;-70
2023/10/22 00:54:41;;;;;;;2.00;0.75;;;;;;;;;;5080172;28;20069;-70
2023/10/22 00:57:12;;;;;;;1.83;0.77;;;;;;;;;;5079805;28;20115;-70
2023/10/22 00:59:39;;;;;;;1.48;0.70;;;;;;;;;;5095781;28;20451;-70
2023/10/22 01:02:06;;;;;;;2.80;0.80;;;;;;;;;;5094072;28;20168;-70
2023/10/22 01:04:32;;;;;;;3.40;0.98;;;;;;;;;;5094164;28;20135;-70
2023/10/22 01:07:00;;;;;;;2.63;0.70;;;;;;;;;;5095199;28;20062;-70
2023/10/22 01:09:27;;;;;;;3.05;1.10;;;;;;;;;;5091423;28;20417;-70
2023/10/22 01:12:04;;;;;;;1.73;0.80;;;;;;;;;;5094713;28;20076;-70
2023/10/22 01:14:32;;;;;;;4.78;1.10;;;;;;;;;;5093680;28;20044;-70
2023/10/22 01:16:59;;;;;;;1.38;0.90;;;;;;;;;;5091400;28;20462;-70
2023/10/22 01:19:25;;;;;;;1.80;0.80;;;;;;;;;;5092832;28;20062;-70
2023/10/22 01:21:52;;;;;;;2.38;0.80;;;;;;;;;;5096377;28;20046;-70
2023/10/22 01:24:19;;;;;;;2.03;0.95;;;;;;;;;;5079784;28;20043;-70
2023/10/22 01:26:46;;;;;;;3.10;0.80;;;;;;;;;;5091900;28;20143;-70
2023/10/22 01:29:13;;;;;;;3.20;1.10;;;;;;;;;;5092330;28;20052;-70
2023/10/22 01:31:41;;;;;;;2.20;1.05;;;;;;;;;;5073048;28;20068;-70
2023/10/22 01:34:08;;;;;;;2.50;1.02;;;;;;;;;;5091035;28;20672;-69
2023/10/22 01:36:35;;;;;;;2.00;0.95;;;;;;;;;;5092049;28;20052;-70
2023/10/22 01:39:01;;;;;;;2.35;0.80;;;;;;;;;;5090659;28;20044;-70
2023/10/22 01:41:28;;;;;;;2.72;1.00;;;;;;;;;;5092720;28;20454;-70
2023/10/22 01:43:56;;;;;;;3.72;1.13;;;;;;;;;;5090881;28;20044;-70
2023/10/22 01:46:23;;;;;;;2.97;0.95;;;;;;;;;;5089644;28;20044;-70
2023/10/22 01:48:49;;;;;;;2.22;0.93;;;;;;;;;;5099416;28;20040;-70
2023/10/22 01:51:16;;;;;;;2.60;1.00;;;;;;;;;;5095127;28;20527;-70
2023/10/22 01:53:43;;;;;;;1.88;1.10;;;;;;;;;;5090098;28;20048;-70
2023/10/22 01:56:09;;;;;;;3.17;1.00;;;;;;;;;;5091047;28;20490;-69
2023/10/22 01:58:36;;;;;;;4.45;1.30;;;;;;;;;;5090573;28;20051;-70
2023/10/22 02:01:04;;;;;;;2.17;0.93;;;;;;;;;;5090365;28;20067;-69
2023/10/22 02:03:35;;;;;;;1.92;1.23;;;;;;;;;;5091323;28;20527;-70
2023/10/22 02:06:11;;;;;;;1.55;1.10;;;;;;;;;;5090650;28;20634;-70
2023/10/22 02:08:38;;;;;;;1.75;0.90;;;;;;;;;;5095075;28;20052;-70
2023/10/22 02:11:05;;;;;;;3.60;0.93;;;;;;;;;;5091725;28;20052;-71
2023/10/22 02:13:32;;;;;;;3.00;0.90;;;;;;;;;;5089825;28;20047;-70
2023/10/22 02:15:59;;;;;;;1.77;0.90;;;;;;;;;;5090106;28;20044;-70
2023/10/22 02:18:25;;;;;;;2.75;0.90;;;;;;;;;;5091014;28;20052;-70
2023/10/22 02:20:57;;;;;;;2.60;0.80;;;;;;;;;;5092931;28;20040;-70
2023/10/22 02:23:25;;;;;;;2.63;0.95;;;;;;;;;;5091106;28;20048;-69
2023/10/22 02:25:51;;;;;;;3.70;0.98;;;;;;;;;;5091508;28;20404;-70
2023/10/22 02:28:21;;;;;;;2.67;0.88;;;;;;;;;;5096164;28;20055;-70
2023/10/22 02:30:48;;;;;;;3.42;1.10;;;;;;;;;;5092054;28;20085;-70
2023/10/22 02:33:15;;;;;;;2.22;0.88;;;;;;;;;;5093115;28;20101;-70
2023/10/22 02:35:43;;;;;;;5.07;1.10;;;;;;;;;;5074911;28;20040;-70
2023/10/22 02:38:16;;;;;;;5.47;1.05;;;;;;;;;;5089251;28;20436;-69
2023/10/22 02:40:44;;;;;;;2.33;0.98;;;;;;;;;;5092699;28;20040;-70
2023/10/22 02:43:11;;;;;;;1.35;0.80;;;;;;;;;;5089837;28;20515;-70
2023/10/22 02:45:48;;;;;;;2.00;0.95;;;;;;;;;;5090617;28;20056;-70
2023/10/22 02:48:18;;;;;;;2.15;1.10;;;;;;;;;;5090837;28;20052;-69
2023/10/22 02:50:46;;;;;;;2.08;1.00;;;;;;;;;;5091997;28;20058;-70
2023/10/22 02:53:13;;;;;;;3.10;0.90;;;;;;;;;;5092870;28;20442;-70
2023/10/22 02:55:40;;;;;;;2.42;1.02;;;;;;;;;;5099909;28;20119;-69
2023/10/22 02:58:07;;;;;;;2.78;1.10;;;;;;;;;;5096163;28;20040;-70
2023/10/22 03:00:34;;;;;;;2.25;1.15;;;;;;;;;;5091976;28;20119;-69
2023/10/22 03:03:04;;;;;;;3.30;0.85;;;;;;;;;;5092900;28;20055;-70
2023/10/22 03:05:34;;;;;;;2.55;1.10;;;;;;;;;;5090067;28;20495;-70
2023/10/22 03:08:02;;;;;;;2.15;0.98;;;;;;;;;;5091091;28;20546;-70
2023/10/22 03:10:29;;;;;;;1.45;0.80;;;;;;;;;;5082249;28;20231;-70
2023/10/22 03:12:58;;;;;;;2.03;1.00;;;;;;;;;;5092184;28;20052;-70
2023/10/22 03:15:24;;;;;;;3.58;1.20;;;;;;;;;;5095913;28;20105;-70
2023/10/22 03:17:53;;;;;;;1.90;0.75;;;;;;;;;;5089782;28;20041;-70
2023/10/22 03:20:24;;;;;;;1.50;0.90;;;;;;;;;;5092624;28;20048;-70
2023/10/22 03:22:53;;;;;;;3.47;1.10;;;;;;;;;;5094559;28;20055;-70
2023/10/22 03:25:23;;;;;;;1.70;0.90;;;;;;;;;;5097316;28;20047;-69
2023/10/22 03:27:50;;;;;;;1.83;0.90;;;;;;;;;;5088663;28;20469;-70
2023/10/22 03:30:19;;;;;;;1.67;0.77;;;;;;;;;;5088887;28;20301;-70
2023/10/22 03:32:46;;;;;;;2.15;0.80;;;;;;;;;;5089395;28;20055;-70
2023/10/22 03:35:13;;;;;;;2.85;0.85;;;;;;;;;;5090659;28;20044;-70
2023/10/22 03:37:41;;;;;;;1.80;0.90;;;;;;;;;;5090458;28;20116;-69
2023/10/22 03:40:09;;;;;;;2.60;0.95;;;;;;;;;;5095977;28;20047;-69
2023/10/22 03:42:36;;;;;;;3.08;1.10;;;;;;;;;;5091601;28;20419;-70
2023/10/22 03:45:04;;;;;;;2.78;0.98;;;;;;;;;;5095086;28;20048;-69
2023/10/22 03:47:31;;;;;;;2.45;1.00;;;;;;;;;;5093115;28;20051;-69
2023/10/22 03:49:58;;;;;;;2.90;0.98;;;;;;;;;;5092858;28;20135;-70
2023/10/22 03:52:25;;;;;;;1.92;0.90;;;;;;;;;;5094300;28;20044;-71
2023/10/22 03:54:56;;;;;;;3.25;1.10;;;;;;;;;;5096960;28;20344;-71
2023/10/22 03:57:25;;;;;;;3.08;1.00;;;;;;;;;;5091815;28;20051;-71
2023/10/22 03:59:52;;;;;;;3.28;0.98;;;;;;;;;;5089836;28;20051;-71
2023/10/22 04:02:21;;;;;;;2.55;0.77;;;;;;;;;;5074355;28;20055;-70
2023/10/22 04:04:47;;;;;;;2.17;0.90;;;;;;;;;;5072718;28;20043;-70
2023/10/22 04:07:14;;;;;;;3.60;0.98;;;;;;;;;;5090712;28;20074;-70
2023/10/22 04:09:41;;;;;;;2.38;1.05;;;;;;;;;;5091549;28;20051;-69
2023/10/22 04:12:09;;;;;;;1.65;0.90;;;;;;;;;;5101962;28;20048;-70
2023/10/22 04:14:35;;;;;;;3.45;1.00;;;;;;;;;;5092560;28;20051;-70
2023/10/22 04:17:03;;;;;;;3.00;1.08;;;;;;;;;;5093027;28;20052;-70
2023/10/22 04:19:29;;;;;;;2.20;1.10;;;;;;;;;;5093462;28;20051;-70
2023/10/22 04:21:56;;;;;;;2.58;1.17;;;;;;;;;;5098285;28;20558;-69
2023/10/22 04:24:23;;;;;;;1.73;0.65;;;;;;;;;;5095164;28;20044;-70
2023/10/22 04:26:52;;;;;;;3.15;0.73;;;;;;;;;;5093089;28;20047;-70
2023/10/22 04:29:19;;;;;;;2.45;0.60;;;;;;;;;;5093785;28;20560;-70
2023/10/22 04:31:45;;;;;;;2.17;0.55;;;;;;;;;;5095394;28;20044;-69
2023/10/22 04:34:12;;;;;;;2.67;0.90;;;;;;;;;;5091903;28;20051;-70
2023/10/22 04:36:39;;;;;;;2.50;0.93;;;;;;;;;;5074792;28;20048;-71
2023/10/22 04:39:05;;;;;;;1.38;0.70;;;;;;;;;;5091721;28;20459;-70
2023/10/22 04:41:32;;;;;;;2.40;0.70;;;;;;;;;;5103811;28;20263;-70
2023/10/22 04:43:59;;;;;;;1.33;0.73;;;;;;;;;;5096839;28;20044;-70
2023/10/22 04:46:25;;;;;;;3.22;0.80;;;;;;;;;;5092631;28;20352;-70
2023/10/22 04:48:55;;;;;;;1.40;1.00;;;;;;;;;;5076856;28;20439;-70
2023/10/22 04:51:23;;;;;;;2.00;0.80;;;;;;;;;;5099656;28;20119;-70
2023/10/22 04:53:50;;;;;;;1.48;0.63;;;;;;;;;;5098712;28;20075;-70
2023/10/22 04:56:17;;;;;;;2.00;0.70;;;;;;;;;;5091763;28;20040;-71
2023/10/22 04:58:44;;;;;;;2.03;0.90;;;;;;;;;;5093086;28;20439;-70
2023/10/22 05:01:11;;;;;;;0.88;0.60;;;;;;;;;;5091949;28;20044;-70
2023/10/22 05:03:38;;;;;;;1.98;0.70;;;;;;;;;;5091658;28;20086;-70
2023/10/22 05:06:08;;;;;;;1.08;0.60;;;;;;;;;;5093254;28;20495;-70
2023/10/22 05:08:38;;;;;;;1.40;0.70;;;;;;;;;;5092003;28;20054;-70
2023/10/22 05:11:05;;;;;;;2.25;0.65;;;;;;;;;;5096212;28;20354;-69
2023/10/22 05:13:32;;;;;;;1.98;0.80;;;;;;;;;;5098871;28;20090;-70
2023/10/22 05:15:59;;;;;;;2.42;0.70;;;;;;;;;;5094411;28;20113;-71
2023/10/22 05:18:26;;;;;;;3.38;0.90;;;;;;;;;;5092919;28;20526;-70
2023/10/22 05:20:53;;;;;;;2.33;0.90;;;;;;;;;;5094773;28;20236;-70
2023/10/22 05:23:20;;;;;;;1.23;0.73;;;;;;;;;;5095988;28;20381;-70
2023/10/22 05:25:47;;;;;;;0.47;0.43;;;;;;;;;;5094922;28;20127;-69
2023/10/22 05:28:14;;;;;;;1.77;0.88;;;;;;;;;;5092671;28;20052;-70
2023/10/22 05:30:41;;;;;;;4.82;1.00;;;;;;;;;;5092553;28;20048;-70
2023/10/22 05:33:08;;;;;;;3.22;1.00;;;;;;;;;;5091158;28;20439;-70
2023/10/22 05:35:35;;;;;;;5.03;1.20;;;;;;;;;;5091005;28;20048;-70
2023/10/22 05:38:02;;;;;;;2.13;1.10;;;;;;;;;;5095851;28;20093;-70
2023/10/22 05:40:38;;;;;;;5.78;1.58;;;;;;;;;;5094141;28;20040;-70
2023/10/22 05:43:05;;;;;;;2.45;0.95;;;;;;;;;;5095751;28;20102;-70
2023/10/22 05:45:32;;;;;;;2.03;0.95;;;;;;;;;;5096316;28;20048;-70
2023/10/22 05:48:03;;;;;;;1.45;0.68;;;;;;;;;;5097797;28;20044;-69
2023/10/22 05:50:37;;;;;;;2.08;0.80;;;;;;;;;;5098987;28;20043;-70
2023/10/22 05:53:05;;;;;;;1.88;1.00;;;;;;;;;;5082142;28;20135;-70
2023/10/22 05:55:31;;;;;;;2.03;0.90;;;;;;;;;;5096110;28;20047;-71
2023/10/22 05:57:58;;;;;;;3.42;0.95;;;;;;;;;;5075538;28;20077;-69
2023/10/22 06:00:25;;;;;;;2.15;0.73;;;;;;;;;;5098679;28;20044;-69
2023/10/22 06:02:51;;;;;;;1.17;0.77;;;;;;;;;;5099624;28;20111;-69
2023/10/22 06:05:19;;;;;;;2.10;0.80;;;;;;;;;;5096058;28;20048;-69
2023/10/22 06:07:52;;;;;;;1.40;0.70;;;;;;;;;;5094553;28;20051;-69
2023/10/22 06:10:19;;;;;;;1.63;0.63;;;;;;;;;;5091388;28;20159;-70
2023/10/22 06:12:48;;;;;;;2.40;0.80;;;;;;;;;;5094706;28;20048;-69
2023/10/22 06:15:15;;;;;;;1.58;0.70;;;;;;;;;;5096423;28;20040;-69
2023/10/22 06:17:42;;;;;;;4.82;1.08;;;;;;;;;;5095801;28;20055;-70
2023/10/22 06:20:10;;;;;;;3.83;0.98;;;;;;;;;;5092154;28;20357;-70
2023/10/22 06:22:37;;;;;;;3.15;0.93;;;;;;;;;;5096527;28;20402;-69
2023/10/22 06:25:04;;;;;;;2.63;0.70;;;;;;;;;;5091985;28;20052;-70
2023/10/22 06:27:30;;;;;;;1.50;0.93;;;;;;;;;;5078907;28;20051;-69
2023/10/22 06:29:59;;;;;;;1.48;0.73;;;;;;;;;;5097310;28;20048;-70
2023/10/22 06:32:26;;;;;;;2.03;0.98;;;;;;;;;;5092253;28;20673;-69
2023/10/22 06:34:53;;;;;;;1.58;0.77;;;;;;;;;;5097055;28;20070;-69
2023/10/22 06:37:20;;;;;;;2.40;0.95;;;;;;;;;;5092371;28;20043;-69
2023/10/22 06:39:51;;;;;;;3.38;1.10;;;;;;;;;;5075158;28;20051;-70
2023/10/22 06:42:17;;;;;;;2.63;1.00;;;;;;;;;;5094977;28;20302;-69
2023/10/22 06:44:44;;;;;;;3.75;0.93;;;;;;;;;;5093582;28;20044;-70
2023/10/22 06:47:11;;;;;;;3.15;0.93;;;;;;;;;;5090655;28;20040;-69
2023/10/22 06:49:38;;;;;;;2.05;0.90;;;;;;;;;;5094412;28;20047;-69
2023/10/22 06:52:05;;;;;;;3.17;0.80;;;;;;;;;;5095989;28;20324;-69
2023/10/22 06:54:31;;;;;;;1.30;1.00;;;;;;;;;;5094344;28;20500;-69
2023/10/22 06:56:59;;;;;;;2.85;0.80;;;;;;;;;;5093647;28;20101;-70
2023/10/22 06:59:26;;;;;;;2.20;0.80;;;;;;;;;;5091957;28;20542;-69
2023/10/22 07:01:52;;;;;;;1.38;0.80;;;;;;;;;;5093286;28;20048;-69
2023/10/22 07:04:19;;;;;;;2.92;0.90;;;;;;;;;;5092047;28;20107;-69
2023/10/22 07:06:46;;;;;;;2.03;0.80;;;;;;;;;;5076970;28;20044;-70
2023/10/22 07:09:12;;;;;;;2.88;0.90;;;;;;;;;;5094883;28;20055;-70
2023/10/22 07:11:39;;;;;;;1.70;0.90;;;;;;;;;;5094376;28;20093;-70
2023/10/22 07:14:06;;;;;;;2.78;1.00;;;;;;;;;;5097587;28;20055;-70
2023/10/22 07:16:33;;;;;;;1.80;0.85;;;;;;;;;;5095719;28;20064;-70
2023/10/22 07:19:01;;;;;;;3.83;0.77;;;;;;;;;;5089489;28;20048;-70
2023/10/22 07:21:28;;;;;;;2.20;1.00;;;;;;;;;;5093775;28;20131;-69
2023/10/22 07:23:55;;;;;;;5.85;1.30;;;;;;;;;;5091259;28;20064;-69
2023/10/22 07:26:22;;;;;;;4.10;1.00;;;;;;;;;;5091540;28;20048;-69
2023/10/22 07:28:49;;;;;;;3.78;0.90;;;;;;;;;;5090539;28;20074;-69
2023/10/22 07:31:17;;;;;;;4.55;1.10;;;;;;;;;;5088543;28;20101;-70
2023/10/22 07:33:44;;;;;;;1.88;0.80;;;;;;;;;;5110599;28;20039;-69
2023/10/22 07:36:11;;;;;;;3.00;0.98;;;;;;;;;;5110477;28;20039;-71
2023/10/22 07:38:40;;;;;;;4.22;1.02;;;;;;;;;;5112607;28;20043;-72
2023/10/22 07:41:15;;;;;;;3.13;1.13;;;;;;;;;;5095939;28;20043;-69
2023/10/22 07:43:42;;;;;;;2.22;1.15;;;;;;;;;;5111118;28;20055;-70
2023/10/22 07:46:10;;;;;;;3.58;0.95;;;;;;;;;;5117863;28;20065;-72
2023/10/22 07:48:38;;;;;;;2.55;1.08;;;;;;;;;;5113876;28;20054;-73
2023/10/22 07:51:12;;;;;;;2.42;1.05;;;;;;;;;;5115963;28;20055;-71
2023/10/22 07:53:43;;;;;;;2.10;0.90;;;;;;;;;;5113064;28;20048;-70
2023/10/22 07:56:12;;;;;;;2.08;1.10;;;;;;;;;;5094975;28;20043;-75
2023/10/22 07:58:40;;;;;;;2.63;1.08;;;;;;;;;;5096993;28;20491;-69
2023/10/22 08:01:12;;;;;;;2.97;1.25;;;;;;;;;;5098161;28;20055;-71
2023/10/22 08:03:40;;;;;;;1.65;0.88;;;;;;;;;;5116178;28;20079;-70
2023/10/22 08:06:07;;;;;;;3.33;1.10;;;;;;;;;;5116508;28;20044;-69
2023/10/22 08:08:34;;;;;;;1.70;0.90;;;;;;;;;;5117405;28;20106;-69
2023/10/22 08:11:03;;;;;;;4.82;1.05;;;;;;;;;;5096842;28;20043;-69
2023/10/22 08:13:30;;;;;;;3.05;1.00;;;;;;;;;;5115593;28;20043;-69
2023/10/22 08:16:05;;;;;;;2.53;0.90;;;;;;;;;;5118363;28;20367;-69
2023/10/22 08:18:33;;;;;;;4.55;1.20;;;;;;;;;;5114393;28;20056;-70
2023/10/22 08:21:04;;;;;;;2.08;0.90;;;;;;;;;;5112514;28;20040;-70
2023/10/22 08:23:31;;;;;;;2.55;0.98;;;;;;;;;;5098990;28;20047;-70
2023/10/22 08:25:58;;;;;;;1.80;0.90;;;;;;;;;;5120172;28;20103;-70
2023/10/22 08:28:25;;;;;;;2.28;1.00;;;;;;;;;;5117661;28;20340;-70
2023/10/22 08:30:51;;;;;;;2.03;0.88;;;;;;;;;;5120034;28;20049;-70
2023/10/22 08:33:18;;;;;;;2.15;0.80;;;;;;;;;;5120282;28;20043;-70
2023/10/22 08:35:45;;;;;;;2.53;1.08;;;;;;;;;;5117832;28;20055;-70
2023/10/22 08:38:14;;;;;;;3.72;1.02;;;;;;;;;;5118396;28;20142;-70
2023/10/22 08:40:41;;;;;;;4.18;1.15;;;;;;;;;;5120245;28;20053;-71
2023/10/22 08:43:18;;;;;;;2.50;0.98;;;;;;;;;;5120282;28;20044;-71
2023/10/22 08:45:49;;;;;;;2.58;1.05;;;;;;;;;;5120166;28;20074;-69
2023/10/22 08:48:17;;;;;;;3.33;1.02;;;;;;;;;;5120171;28;20205;-70
2023/10/22 08:50:46;;;;;;;3.60;1.13;;;;;;;;;;5119940;28;20338;-71
2023/10/22 08:53:15;;;;;;;2.13;0.98;;;;;;;;;;5116909;28;20067;-71
2023/10/22 08:55:47;;;;;;;2.15;0.98;;;;;;;;;;5121050;28;20096;-70
2023/10/22 08:58:16;;;;;;;2.03;1.00;;;;;;;;;;5123415;28;20059;-70
2023/10/22 09:00:47;;;;;;;1.98;0.80;;;;;;;;;;5104762;28;20050;-70
2023/10/22 09:03:19;;;;;;;2.28;1.10;;;;;;;;;;5123533;28;20335;-69
2023/10/22 09:05:47;;;;;;;2.45;0.80;;;;;;;;;;5123487;28;20063;-70
2023/10/22 09:08:15;;;;;;;3.53;0.85;;;;;;;;;;5122574;28;20410;-69
2023/10/22 09:10:42;;;;;;;1.50;1.00;;;;;;;;;;5117647;28;20132;-71
2023/10/22 09:13:21;;;;;;;3.25;0.80;;;;;;;;;;5111706;28;20044;-70
2023/10/22 09:15:49;;;;;;;3.78;0.90;;;;;;;;;;5102977;28;20097;-71
2023/10/22 09:18:17;;;;;;;1.45;0.80;;;;;;;;;;5101671;28;20082;-75
2023/10/22 09:20:46;;;;;;;1.10;0.70;;;;;;;;;;5085236;28;20150;-70
2023/10/22 09:23:19;;;;;;;1.45;0.70;;;;;;;;;;5102139;28;20649;-71
2023/10/22 09:25:47;;;;;;;1.52;0.70;;;;;;;;;;5106993;28;20051;-70
2023/10/22 09:28:25;;;;;;;3.55;0.80;;;;;;;;;;5115076;28;20140;-70
2023/10/22 09:30:58;;;;;;;2.88;1.00;;;;;;;;;;5121833;28;20051;-69
2023/10/22 09:33:35;;;;;;;4.30;0.80;;;;;;;;;;5123227;28;20066;-69
2023/10/22 09:36:07;;;;;;;1.75;0.90;;;;;;;;;;5122281;28;20089;-70
2023/10/22 09:38:44;;;;;;;1.98;0.90;;;;;;;;;;5102210;28;20090;-70
2023/10/22 09:41:25;;;;;;;1.85;0.68;;;;;;;;;;5119982;28;20062;-70
2023/10/22 09:44:01;;;;;;;4.25;1.02;;;;;;;;;;5122713;28;20385;-69
2023/10/22 09:46:36;;;;;;;2.95;0.70;;;;;;;;;;5122464;28;20044;-70
2023/10/22 09:49:03;;;;;;;2.78;0.90;;;;;;;;;;5121535;28;20092;-70
2023/10/22 09:51:34;;;;;;;1.52;0.57;;;;;;;;;;5121656;28;20050;-70
2023/10/22 09:54:07;;;;;;;2.93;0.90;;;;;;;;;;5121351;28;20046;-70
2023/10/22 09:56:42;;;;;;;3.67;0.90;;;;;;;;;;5103876;28;20051;-70
2023/10/22 09:59:10;;;;;;;2.00;0.60;;;;;;;;;;5121510;28;20477;-69
2023/10/22 10:01:38;;;;;;;3.13;0.90;;;;;;;;;;5121874;28;20043;-70
2023/10/22 10:04:05;;;;;;;1.80;0.80;;;;;;;;;;5122728;28;20341;-71
2023/10/22 10:06:35;;;;;;;1.98;0.80;;;;;;;;;;5122067;28;20050;-69
2023/10/22 10:09:12;;;;;;;2.50;0.82;;;;;;;;;;5120681;28;20049;-69
2023/10/22 10:11:40;;;;;;;5.03;1.00;;;;;;;;;;5122677;28;20047;-70
2023/10/22 10:14:35;;;;;;;2.53;0.70;;;;;;;;;;5122517;28;20110;-70
2023/10/22 10:17:03;;;;;;;1.35;0.57;;;;;;;;;;5118581;28;20050;-71
2023/10/22 10:19:30;;;;;;;3.97;0.90;;;;;;;;;;5122315;28;20089;-71
2023/10/22 10:21:57;;;;;;;1.52;0.68;;;;;;;;;;5122196;28;20449;-70
2023/10/22 10:24:25;;;;;;;3.00;0.80;;;;;;;;;;5121748;28;20047;-70
2023/10/22 10:27:12;;;;;;;4.43;1.17;;;;;;;;;;5122290;28;20051;-70
2023/10/22 10:29:40;;;;;;;1.58;0.75;;;;;;;;;;5121784;28;20392;-71
2023/10/22 10:32:15;;;;;;;2.25;0.95;;;;;;;;;;5122050;28;20054;-70
2023/10/22 10:34:47;;;;;;;1.42;0.70;;;;;;;;;;5121917;28;20051;-70
2023/10/22 10:37:21;;;;;;;4.10;1.10;;;;;;;;;;5121721;28;20485;-70
2023/10/22 10:39:48;;;;;;;3.03;0.93;;;;;;;;;;5121726;28;20108;-70
2023/10/22 10:42:33;;;;;;;3.50;0.90;;;;;;;;;;5121915;28;20048;-70
2023/10/22 10:45:00;;;;;;;4.80;1.50;;;;;;;;;;5121818;28;20328;-71
2023/10/22 10:47:36;;;;;;;3.13;1.20;;;;;;;;;;5122020;28;20043;-70
2023/10/22 10:50:08;;;;;;;3.13;0.98;;;;;;;;;;5121554;28;20048;-70
2023/10/22 10:52:34;;;;;;;3.38;1.20;;;;;;;;;;5121889;28;20058;-71
2023/10/22 10:55:27;;;;;;;2.45;1.20;;;;;;;;;;5120418;28;20043;-70
2023/10/22 10:57:55;;;;;;;3.38;1.50;;;;;;;;;;5121625;28;20047;-71
2023/10/22 11:00:30;;;;;;;4.68;1.52;;;;;;;;;;5101937;28;20055;-71
2023/10/22 11:03:02;;;;;;;3.65;1.17;;;;;;;;;;5121576;28;20089;-70
2023/10/22 11:05:40;;;;;;;4.68;1.20;;;;;;;;;;5121504;28;20043;-71
2023/10/22 11:08:20;;;;;;;1.60;0.88;;;;;;;;;;5120861;28;20123;-70
2023/10/22 11:10:47;;;;;;;2.20;0.90;;;;;;;;;;5121851;28;20040;-70
2023/10/22 11:13:14;;;;;;;2.13;0.80;;;;;;;;;;5120985;28;20048;-70
2023/10/22 11:15:41;;;;;;;2.05;0.70;;;;;;;;;;5121133;28;20048;-70
2023/10/22 11:18:09;;;;;;;1.20;0.70;;;;;;;;;;5120636;28;20078;-71
2023/10/22 11:20:38;;;;;;;1.10;0.70;;;;;;;;;;5121001;28;20090;-70
2023/10/22 11:23:20;;;;;;;1.52;0.75;;;;;;;;;;5120755;28;20044;-71
2023/10/22 11:25:47;;;;;;;1.58;0.60;;;;;;;;;;5120970;28;20070;-70
2023/10/22 11:28:14;;;;;;;3.17;0.65;;;;;;;;;;5120780;28;20048;-71
2023/10/22 11:30:41;;;;;;;2.20;0.68;;;;;;;;;;5121004;28;20110;-71
2023/10/22 11:33:26;;;;;;;2.60;0.60;;;;;;;;;;5121002;28;20075;-71
2023/10/22 11:35:55;;;;;;;2.42;0.77;;;;;;;;;;5120942;28;20043;-71
2023/10/22 11:38:22;;;;;;;4.78;0.70;;;;;;;;;;5120511;28;20108;-70
2023/10/22 11:40:55;;;;;;;1.63;0.60;;;;;;;;;;5120877;28;20107;-70
2023/10/22 11:43:26;;;;;;;2.03;0.63;;;;;;;;;;5120996;28;20108;-70
2023/10/22 11:45:53;;;;;;;;;;;;;;;;;;5120880;28;20328;-70
2023/10/22 11:48:24;;;;;;;0.85;0.38;;;;;;;;;;5120864;28;19961;-70
2023/10/22 11:50:58;;;;;;;0.90;0.50;;;;;;;;;;5120352;28;20043;-70
2023/10/22 11:53:40;;;;;;;1.35;0.50;;;;;;;;;;5120426;28;20075;-71
2023/10/22 11:56:06;;;;;;;0.82;0.57;;;;;;;;;;5120495;28;20044;-70
2023/10/22 11:58:33;;;;;;;2.40;0.70;;;;;;;;;;5120289;28;20065;-70
2023/10/22 12:01:07;;;;;;;0.95;0.60;;;;;;;;;;5120484;28;20294;-71
2023/10/22 12:03:34;;;;;;;1.30;0.55;;;;;;;;;;5085810;28;20043;-71
2023/10/22 12:06:03;;;;;;;1.88;0.55;;;;;;;;;;5102718;28;20327;-70
2023/10/22 12:08:30;;;;;;;1.65;0.75;;;;;;;;;;5120297;28;20167;-70
2023/10/22 12:10:56;;;;;;;1.55;0.60;;;;;;;;;;5120395;28;20127;-71
2023/10/22 12:13:23;;;;;;;1.88;0.60;;;;;;;;;;5120366;28;20081;-71
2023/10/22 12:15:50;;;;;;;2.30;0.50;;;;;;;;;;5120204;28;20339;-72
2023/10/22 12:18:17;;;;;;;2.83;0.57;;;;;;;;;;5119758;28;20100;-72
2023/10/22 12:20:44;;;;;;;2.95;0.57;;;;;;;;;;5120216;28;20047;-70
2023/10/22 12:23:11;;;;;;;1.27;0.60;;;;;;;;;;5120193;28;20052;-71
2023/10/22 12:25:38;;;;;;;2.40;0.70;;;;;;;;;;5120291;28;20110;-70
2023/10/22 12:28:05;;;;;;;1.77;0.80;;;;;;;;;;5120362;28;20118;-70
2023/10/22 12:30:32;;;;;;;0.75;0.43;;;;;;;;;;5121032;28;20043;-70
2023/10/22 12:32:59;;;;;;;1.63;0.60;;;;;;;;;;5124414;28;20483;-71
2023/10/22 12:35:26;;;;;;;2.10;0.40;;;;;;;;;;5124356;28;20155;-70
2023/10/22 12:37:54;;;;;;;1.02;0.30;;;;;;;;;;5123719;28;20062;-70
2023/10/22 12:40:22;;;;;;;2.37;0.57;;;;;;;;;;5124359;28;20048;-70
2023/10/22 12:42:48;;;;;;;2.40;0.55;;;;;;;;;;5124532;28;20048;-70
2023/10/22 12:45:15;;;;;;;1.42;0.43;;;;;;;;;;5123973;28;20044;-70
2023/10/22 12:47:42;;;;;;;2.95;0.60;;;;;;;;;;5124217;28;20043;-70
2023/10/22 12:50:09;;;;;;;2.78;0.40;;;;;;;;;;5120212;28;20051;-70
2023/10/22 12:52:36;;;;;;;3.00;0.60;;;;;;;;;;5123565;28;20494;-69
2023/10/22 12:55:04;;;;;;;2.75;0.40;;;;;;;;;;5123397;28;20228;-70
2023/10/22 12:57:32;;;;;;;3.33;0.80;;;;;;;;;;5123656;28;20265;-70
2023/10/22 12:59:59;;;;;;;1.55;0.50;;;;;;;;;;5123727;28;20047;-69
2023/10/22 13:02:30;;;;;;;1.73;0.47;;;;;;;;;;5123743;28;20358;-70
2023/10/22 13:04:57;;;;;;;1.35;0.40;;;;;;;;;;5124034;28;20067;-70
2023/10/22 13:07:24;;;;;;;2.45;0.60;;;;;;;;;;5123834;28;20044;-69
2023/10/22 13:09:50;;;;;;;3.10;0.50;;;;;;;;;;5123378;28;20081;-70
2023/10/22 13:12:17;;;;;;;2.55;0.50;;;;;;;;;;5123576;28;20044;-70
2023/10/22 13:14:44;;;;;;;1.60;0.50;;;;;;;;;;5123505;28;20075;-70
2023/10/22 13:17:10;;;;;;;0.60;0.30;;;;;;;;;;5123352;28;20055;-70
2023/10/22 13:19:37;;;;;;;1.27;0.43;;;;;;;;;;5123443;28;20051;-70
2023/10/22 13:22:04;;;;;;;2.78;0.60;;;;;;;;;;5123495;28;20074;-70
2023/10/22 13:24:31;;;;;;;1.05;0.35;;;;;;;;;;5123119;28;20047;-70
2023/10/22 13:26:58;;;;;;;1.35;0.45;;;;;;;;;;5123289;28;20079;-69
2023/10/22 13:29:24;;;;;;;1.67;0.50;;;;;;;;;;5123344;28;20044;-69
2023/10/22 13:31:51;;;;;;;1.42;0.50;;;;;;;;;;5123228;28;20044;-69
2023/10/22 13:34:18;;;;;;;1.73;0.73;;;;;;;;;;5123440;28;20047;-70
2023/10/22 13:36:44;;;;;;;1.60;0.47;;;;;;;;;;5123038;28;20088;-70
2023/10/22 13:39:11;;;;;;;1.52;0.75;;;;;;;;;;5122575;28;20062;-69
2023/10/22 13:41:41;;;;;;;1.50;0.50;;;;;;;;;;5121744;28;20043;-70
2023/10/22 13:44:07;;;;;;;2.28;0.80;;;;;;;;;;5122974;28;20047;-69
2023/10/22 13:46:34;;;;;;;1.17;0.43;;;;;;;;;;5122490;28;20089;-69
2023/10/22 13:49:00;;;;;;;1.63;0.40;;;;;;;;;;5122786;28;20043;-69
2023/10/22 13:51:27;;;;;;;3.00;0.60;;;;;;;;;;5122468;28;20043;-70
2023/10/22 13:53:54;;;;;;;2.08;0.55;;;;;;;;;;5121490;28;20051;-69
2023/10/22 13:56:21;;;;;;;1.92;0.45;;;;;;;;;;5122561;28;20266;-70
2023/10/22 13:58:47;;;;;;;2.58;0.70;;;;;;;;;;5122562;28;20040;-69
2023/10/22 14:01:14;;;;;;;1.38;0.50;;;;;;;;;;5122452;28;20044;-69
2023/10/22 14:03:42;;;;;;;2.88;0.43;;;;;;;;;;5122833;28;20075;-69
2023/10/22 14:06:09;;;;;;;2.28;0.57;;;;;;;;;;5122395;28;20343;-69
2023/10/22 14:08:36;;;;;;;1.20;0.45;;;;;;;;;;5122213;28;20051;-69
2023/10/22 14:11:03;;;;;;;2.33;0.50;;;;;;;;;;5122355;28;20099;-69
2023/10/22 14:13:30;;;;;;;1.52;0.60;;;;;;;;;;5122493;28;20452;-69
2023/10/22 14:16:04;;;;;;;2.53;0.60;;;;;;;;;;5122266;28;20443;-69
2023/10/22 14:18:31;;;;;;;3.88;0.47;;;;;;;;;;5122092;28;20059;-69
2023/10/22 14:21:07;;;;;;;1.70;0.50;;;;;;;;;;5122116;28;20052;-70
2023/10/22 14:23:34;;;;;;;2.28;0.50;;;;;;;;;;5122018;28;20058;-69
2023/10/22 14:26:01;;;;;;;4.32;0.95;;;;;;;;;;5122031;28;20198;-69
2023/10/22 14:28:27;;;;;;;2.67;0.60;;;;;;;;;;5122258;28;20107;-70
2023/10/22 14:30:54;;;;;;;1.92;0.68;;;;;;;;;;5121964;28;20043;-69
2023/10/22 14:33:22;;;;;;;1.85;0.50;;;;;;;;;;5121565;28;20039;-70
2023/10/22 14:35:57;;;;;;;2.33;0.63;;;;;;;;;;5121450;28;20039;-70
2023/10/22 14:38:24;;;;;;;3.00;0.98;;;;;;;;;;5121609;28;20044;-70
2023/10/22 14:40:50;;;;;;;3.40;0.50;;;;;;;;;;5121665;28;20070;-70
2023/10/22 14:43:17;;;;;;;3.13;0.70;;;;;;;;;;5121783;28;20338;-70
2023/10/22 14:45:44;;;;;;;1.98;0.50;;;;;;;;;;5121573;28;20415;-70
2023/10/22 14:48:11;;;;;;;2.53;0.60;;;;;;;;;;5121839;28;20044;-70
2023/10/22 14:50:37;;;;;;;3.25;0.60;;;;;;;;;;5121434;28;20298;-70